Time;durP1;ratioP1;P1;durP2;ratioP2;P2;SDS_P1;SDS_P2;PMS_P1;PMS_P2;Temp;Humidity;BMP_temperature;BMP_pressure;BME280_temperature;BME280_humidity;BME280_pressure;Samples;Min_cycle;Max_cycle;Signal;HPM_P1;HPM_P2
2021/07/30 00:00:17;;;;;;;10.38;4.18;;;16.90;99.90;;;;;;4022158;29;20186;-87
2021/07/30 00:02:19;;;;;;;14.70;4.28;;;16.90;99.90;;;;;;4037615;29;20710;-85
2021/07/30 00:04:19;;;;;;;16.83;3.95;;;17.00;99.90;;;;;;4052821;29;20181;-84
2021/07/30 00:06:20;;;;;;;12.25;4.35;;;17.10;99.90;;;;;;4037456;29;20650;-85
2021/07/30 00:08:21;;;;;;;19.30;4.18;;;17.10;99.90;;;;;;4021982;29;20202;-85
2021/07/30 00:10:21;;;;;;;17.98;4.60;;;17.10;99.90;;;;;;4021915;29;20194;-85
2021/07/30 00:12:22;;;;;;;14.02;4.18;;;17.00;99.90;;;;;;4052585;29;20296;-85
2021/07/30 00:14:23;;;;;;;12.95;4.28;;;17.00;99.90;;;;;;4037285;29;20185;-84
2021/07/30 00:16:24;;;;;;;14.77;3.67;;;16.90;99.90;;;;;;4036985;29;20181;-85
2021/07/30 00:18:24;;;;;;;14.07;4.15;;;16.80;99.90;;;;;;4037014;29;20547;-85
2021/07/30 00:20:25;;;;;;;15.40;3.97;;;16.70;99.90;;;;;;4052451;29;20184;-85
2021/07/30 00:22:26;;;;;;;11.30;3.85;;;16.70;99.90;;;;;;4038109;29;20193;-85
2021/07/30 00:24:26;;;;;;;13.77;4.00;;;16.70;99.90;;;;;;4036782;29;20246;-92
2021/07/30 00:26:27;;;;;;;11.27;3.80;;;16.70;99.90;;;;;;4037031;29;20543;-85
2021/07/30 00:28:28;;;;;;;21.70;4.07;;;16.70;99.90;;;;;;4038221;29;20174;-85
2021/07/30 00:30:30;;;;;;;9.85;3.92;;;16.70;99.90;;;;;;4021531;29;20189;-94
2021/07/30 00:32:31;;;;;;;14.90;4.32;;;16.80;99.90;;;;;;4021711;29;20175;-85
2021/07/30 00:34:32;;;;;;;14.57;4.65;;;16.80;99.90;;;;;;4036851;29;20188;-85
2021/07/30 00:36:32;;;;;;;18.55;3.80;;;16.80;99.90;;;;;;4036661;29;20209;-91
2021/07/30 00:38:33;;;;;;;12.65;4.10;;;16.80;99.90;;;;;;4052406;29;20181;-95
2021/07/30 00:40:35;;;;;;;12.15;3.83;;;16.70;99.90;;;;;;4021799;29;20187;-85
2021/07/30 00:42:52;;;;;;;12.68;3.90;;;16.70;99.90;;;;;;4036992;29;20185;-85
2021/07/30 00:44:53;;;;;;;13.95;4.80;;;16.70;99.90;;;;;;4021367;29;20659;-85
2021/07/30 00:46:54;;;;;;;13.38;4.35;;;16.70;99.90;;;;;;4052326;29;20184;-85
2021/07/30 00:48:55;;;;;;;10.68;4.45;;;16.70;99.90;;;;;;4052325;29;20217;-95
2021/07/30 00:50:57;;;;;;;17.63;4.30;;;16.70;99.90;;;;;;4036957;29;20177;-94
2021/07/30 00:52:58;;;;;;;15.80;4.13;;;16.70;99.90;;;;;;4052242;29;20550;-85
2021/07/30 00:54:59;;;;;;;16.35;4.25;;;16.60;99.90;;;;;;4036693;29;20338;-85
2021/07/30 00:57:01;;;;;;;17.25;4.43;;;16.60;99.90;;;;;;4039602;29;20258;-92
2021/07/30 00:59:05;;;;;;;15.05;4.40;;;16.60;99.90;;;;;;4024400;29;20296;-89
2021/07/30 01:01:06;;;;;;;14.43;4.57;;;16.50;99.90;;;;;;4041054;29;20667;-85
2021/07/30 01:03:09;;;;;;;14.68;4.63;;;16.50;99.90;;;;;;4041044;29;20198;-85
2021/07/30 01:05:10;;;;;;;16.20;4.13;;;16.50;99.90;;;;;;4040751;29;20292;-85
2021/07/30 01:07:11;;;;;;;13.85;4.45;;;16.50;99.90;;;;;;4055208;29;20248;-94
2021/07/30 01:09:12;;;;;;;12.95;4.68;;;16.40;99.90;;;;;;4039446;29;20185;-85
2021/07/30 01:11:12;;;;;;;13.50;4.07;;;16.40;99.90;;;;;;4039483;29;20240;-93
2021/07/30 01:13:13;;;;;;;16.80;4.40;;;16.40;99.90;;;;;;4070827;29;20180;-85
2021/07/30 01:15:14;;;;;;;13.90;4.57;;;16.50;99.90;;;;;;4040945;29;20542;-85
2021/07/30 01:17:15;;;;;;;13.30;4.22;;;16.60;99.90;;;;;;4039720;29;20248;-85
2021/07/30 01:19:21;;;;;;;18.05;4.28;;;16.60;99.90;;;;;;4039411;29;20204;-85
2021/07/30 01:21:38;;;;;;;18.42;4.35;;;16.60;99.90;;;;;;4039315;29;20181;-89
2021/07/30 01:23:39;;;;;;;12.93;3.97;;;16.60;99.90;;;;;;4055392;29;20732;-93
2021/07/30 01:25:39;;;;;;;11.50;4.00;;;16.60;99.90;;;;;;4023997;29;20210;-85
2021/07/30 01:27:40;;;;;;;19.40;4.75;;;16.70;99.90;;;;;;4054983;29;20221;-86
2021/07/30 01:29:41;;;;;;;17.30;4.63;;;16.70;99.90;;;;;;4039669;29;20173;-85
2021/07/30 01:31:42;;;;;;;12.07;4.00;;;16.70;99.90;;;;;;4070598;29;20172;-89
2021/07/30 01:33:43;;;;;;;15.52;4.35;;;16.70;99.90;;;;;;4024201;29;20193;-85
2021/07/30 01:35:43;;;;;;;23.67;4.97;;;16.70;99.90;;;;;;4054459;29;20196;-85
2021/07/30 01:37:44;;;;;;;12.98;4.43;;;16.60;99.90;;;;;;4024178;29;20218;-85
2021/07/30 01:39:45;;;;;;;14.73;4.38;;;16.70;99.90;;;;;;4039166;29;20181;-95
2021/07/30 01:41:46;;;;;;;16.77;4.47;;;16.70;99.90;;;;;;4054798;29;20264;-85
2021/07/30 01:43:46;;;;;;;11.57;4.40;;;16.70;99.90;;;;;;4023960;29;20174;-85
2021/07/30 01:45:47;;;;;;;16.23;4.35;;;16.60;99.90;;;;;;4054548;29;20219;-85
2021/07/30 01:47:48;;;;;;;14.48;4.45;;;16.60;99.90;;;;;;4023909;29;20706;-93
2021/07/30 01:49:49;;;;;;;14.20;4.38;;;16.60;99.90;;;;;;4054544;29;20192;-85
2021/07/30 01:51:50;;;;;;;13.57;4.38;;;16.60;99.90;;;;;;4039228;29;20181;-85
2021/07/30 01:53:51;;;;;;;14.20;4.43;;;16.60;99.90;;;;;;4023804;29;20174;-85
2021/07/30 01:55:52;;;;;;;17.40;4.45;;;16.60;99.90;;;;;;4039101;29;20237;-95
2021/07/30 01:57:52;;;;;;;16.73;4.88;;;16.50;99.90;;;;;;4040243;29;20208;-85
2021/07/30 01:59:53;;;;;;;14.45;4.38;;;16.60;99.90;;;;;;4039256;29;20177;-84
2021/07/30 02:01:54;;;;;;;15.52;5.10;;;16.50;99.90;;;;;;4039011;29;20196;-85
2021/07/30 02:03:54;;;;;;;14.05;4.72;;;16.50;99.90;;;;;;4023588;29;20178;-95
2021/07/30 02:05:55;;;;;;;10.55;4.07;;;16.50;99.90;;;;;;4023498;29;20201;-85
2021/07/30 02:07:56;;;;;;;15.48;4.30;;;16.50;99.90;;;;;;4053237;29;20221;-87
2021/07/30 02:09:58;;;;;;;15.57;4.45;;;16.50;99.90;;;;;;4039047;29;20184;-89
2021/07/30 02:11:59;;;;;;;19.88;4.90;;;16.50;99.90;;;;;;4023386;29;20195;-94
2021/07/30 02:14:15;;;;;;;13.52;4.15;;;16.50;99.90;;;;;;4038828;29;20543;-95
2021/07/30 02:16:16;;;;;;;15.05;4.47;;;16.50;99.90;;;;;;4054215;29;20204;-85
2021/07/30 02:18:17;;;;;;;19.13;4.88;;;16.40;99.90;;;;;;4023504;29;20735;-85
2021/07/30 02:20:17;;;;;;;21.48;4.65;;;16.40;99.90;;;;;;4069911;29;20224;-85
2021/07/30 02:22:18;;;;;;;24.42;5.70;;;16.40;99.90;;;;;;4038805;29;20183;-85
2021/07/30 02:24:20;;;;;;;16.48;4.63;;;16.40;99.90;;;;;;4069661;29;20183;-95
2021/07/30 02:26:21;;;;;;;11.75;4.20;;;16.40;99.90;;;;;;4053810;29;20236;-85
2021/07/30 02:28:21;;;;;;;17.80;4.40;;;16.40;99.90;;;;;;4023011;29;20600;-94
2021/07/30 02:30:25;;;;;;;16.27;4.60;;;16.40;99.90;;;;;;4039740;29;20268;-89
2021/07/30 02:32:26;;;;;;;13.85;4.55;;;16.30;99.90;;;;;;4039862;29;20174;-85
2021/07/30 02:34:27;;;;;;;20.00;4.60;;;16.30;99.90;;;;;;4039045;29;20193;-94
2021/07/30 02:36:28;;;;;;;16.92;4.82;;;16.30;99.90;;;;;;4053276;29;20304;-85
2021/07/30 02:38:29;;;;;;;11.07;4.47;;;16.30;99.90;;;;;;4039697;29;20189;-95
2021/07/30 02:40:29;;;;;;;13.38;4.70;;;16.40;99.90;;;;;;4069765;29;20634;-85
2021/07/30 02:42:30;;;;;;;13.82;4.50;;;16.40;99.90;;;;;;4038172;29;20177;-86
2021/07/30 02:44:31;;;;;;;12.32;4.00;;;16.40;99.90;;;;;;4038288;29;20213;-85
2021/07/30 02:46:31;;;;;;;15.95;5.07;;;16.40;99.90;;;;;;4022646;29;20213;-85
2021/07/30 02:48:32;;;;;;;15.30;5.05;;;16.40;99.90;;;;;;4038490;29;20218;-85
2021/07/30 02:50:33;;;;;;;12.25;4.25;;;16.40;99.90;;;;;;4038463;29;20216;-86
2021/07/30 02:52:34;;;;;;;15.65;4.80;;;16.40;99.90;;;;;;4038700;29;20185;-95
2021/07/30 02:54:35;;;;;;;12.20;4.07;;;16.40;99.90;;;;;;4039187;29;20181;-85
2021/07/30 02:56:35;;;;;;;15.65;4.57;;;16.40;99.90;;;;;;4038613;29;20186;-85
2021/07/30 02:58:36;;;;;;;11.30;4.32;;;16.40;99.90;;;;;;4038325;29;20181;-95
2021/07/30 03:00:37;;;;;;;11.75;3.95;;;16.40;99.90;;;;;;4038055;29;20179;-96
2021/07/30 03:02:38;;;;;;;18.50;4.40;;;16.40;99.90;;;;;;4022707;29;20666;-93
2021/07/30 03:04:39;;;;;;;12.85;4.40;;;16.40;99.90;;;;;;4022403;29;20199;-85
2021/07/30 03:06:39;;;;;;;11.88;4.53;;;16.40;99.90;;;;;;4053168;29;20181;-85
2021/07/30 03:08:40;;;;;;;16.17;4.00;;;16.40;99.90;;;;;;4022831;29;20640;-95
2021/07/30 03:10:41;;;;;;;15.43;4.55;;;16.40;99.90;;;;;;4023039;29;20205;-95
2021/07/30 03:12:42;;;;;;;18.73;4.80;;;16.40;99.90;;;;;;4053991;29;20593;-85
2021/07/30 03:14:42;;;;;;;13.80;4.43;;;16.40;99.90;;;;;;4022776;29;20303;-85
2021/07/30 03:16:43;;;;;;;10.73;4.57;;;16.30;99.90;;;;;;4038265;29;20201;-85
2021/07/30 03:18:44;;;;;;;14.15;4.78;;;16.30;99.90;;;;;;4037911;29;20273;-85
2021/07/30 03:20:45;;;;;;;13.85;4.20;;;16.30;99.90;;;;;;4022354;29;20238;-85
2021/07/30 03:22:45;;;;;;;15.07;4.93;;;16.30;99.90;;;;;;4022567;29;20214;-85
2021/07/30 03:24:46;;;;;;;16.23;4.75;;;16.30;99.90;;;;;;4037719;29;20218;-85
2021/07/30 03:26:47;;;;;;;14.27;4.35;;;16.30;99.90;;;;;;4022699;29;20186;-85
2021/07/30 03:28:48;;;;;;;18.05;4.65;;;16.20;99.90;;;;;;4037758;29;20710;-85
2021/07/30 03:30:49;;;;;;;14.77;5.07;;;16.20;99.90;;;;;;4053667;29;20188;-86
2021/07/30 03:32:50;;;;;;;13.73;4.47;;;16.20;99.90;;;;;;4037864;29;20229;-93
2021/07/30 03:34:51;;;;;;;13.35;4.30;;;16.20;99.90;;;;;;4053367;29;20280;-95
2021/07/30 03:36:51;;;;;;;13.45;5.00;;;16.30;99.90;;;;;;4037563;29;20204;-90
2021/07/30 03:38:52;;;;;;;18.90;4.80;;;16.20;99.90;;;;;;4052905;29;20177;-85
2021/07/30 03:40:53;;;;;;;12.30;3.95;;;16.20;99.90;;;;;;4038319;29;20170;-88
2021/07/30 03:42:53;;;;;;;19.75;4.60;;;16.20;99.90;;;;;;4053713;29;20193;-92
2021/07/30 03:44:54;;;;;;;23.65;4.90;;;16.20;99.90;;;;;;4053109;29;20189;-86
2021/07/30 03:46:55;;;;;;;14.68;5.00;;;16.20;99.90;;;;;;4037344;29;20185;-86
2021/07/30 03:48:56;;;;;;;14.07;4.53;;;16.20;99.90;;;;;;4022484;29;20639;-95
2021/07/30 03:50:56;;;;;;;16.50;5.00;;;16.20;99.90;;;;;;4052670;29;20630;-86
2021/07/30 03:53:00;;;;;;;14.80;5.20;;;16.20;99.90;;;;;;4022304;29;20262;-85
2021/07/30 03:55:01;;;;;;;17.85;4.57;;;16.20;99.90;;;;;;4022084;29;20198;-85
2021/07/30 03:57:02;;;;;;;19.52;4.72;;;16.10;99.90;;;;;;4022057;29;20666;-93
2021/07/30 03:59:03;;;;;;;17.30;4.63;;;16.10;99.90;;;;;;4037593;29;20209;-84
2021/07/30 04:01:08;;;;;;;16.67;5.68;;;16.00;99.90;;;;;;4052907;29;20176;-85
2021/07/30 04:03:08;;;;;;;14.90;4.72;;;16.00;99.90;;;;;;4052793;29;20236;-85
2021/07/30 04:05:09;;;;;;;16.63;4.65;;;16.00;99.90;;;;;;4021837;29;20226;-95
2021/07/30 04:07:10;;;;;;;12.98;4.60;;;16.00;99.90;;;;;;4022068;29;20242;-85
2021/07/30 04:09:15;;;;;;;14.95;4.50;;;16.00;99.90;;;;;;4037549;29;20177;-85
2021/07/30 04:11:15;;;;;;;12.35;4.70;;;16.10;99.90;;;;;;4021808;29;20178;-93
2021/07/30 04:13:16;;;;;;;15.50;4.93;;;16.10;99.90;;;;;;4037630;29;20638;-85
2021/07/30 04:15:17;;;;;;;13.00;4.65;;;16.10;99.90;;;;;;4052888;29;20562;-95
2021/07/30 04:17:18;;;;;;;11.25;4.63;;;16.00;99.90;;;;;;4022123;29;20229;-94
2021/07/30 04:19:18;;;;;;;13.32;4.72;;;16.00;99.90;;;;;;4037244;29;20173;-94
2021/07/30 04:21:19;;;;;;;17.90;4.20;;;16.00;99.90;;;;;;4021901;29;20193;-94
2021/07/30 04:23:20;;;;;;;11.05;4.22;;;16.00;99.90;;;;;;4037806;29;20591;-86
2021/07/30 04:25:20;;;;;;;13.30;4.18;;;16.00;99.90;;;;;;4052745;29;20205;-84
2021/07/30 04:27:21;;;;;;;14.70;4.50;;;16.00;99.90;;;;;;4021962;29;20189;-85
2021/07/30 04:29:23;;;;;;;14.70;4.43;;;16.00;99.90;;;;;;4037500;29;20177;-85
2021/07/30 04:31:24;;;;;;;10.82;4.82;;;16.00;99.90;;;;;;4022564;29;20174;-93
2021/07/30 04:33:24;;;;;;;15.18;4.18;;;16.00;99.90;;;;;;4040875;29;20232;-95
2021/07/30 04:35:25;;;;;;;13.57;4.75;;;16.10;99.90;;;;;;4025068;29;20707;-85
2021/07/30 04:37:26;;;;;;;14.82;4.68;;;16.00;99.90;;;;;;4055625;29;20216;-86
2021/07/30 04:39:26;;;;;;;14.30;5.00;;;16.00;99.90;;;;;;4040170;29;20253;-85
2021/07/30 04:41:27;;;;;;;19.63;4.40;;;15.90;99.90;;;;;;4040086;29;20185;-86
2021/07/30 04:43:28;;;;;;;13.80;4.32;;;15.80;99.90;;;;;;4039895;29;20170;-93
2021/07/30 04:45:29;;;;;;;12.57;4.25;;;15.70;99.90;;;;;;4024672;29;20228;-86
2021/07/30 04:47:29;;;;;;;12.68;4.25;;;15.70;99.90;;;;;;4055686;29;20199;-85
2021/07/30 04:49:30;;;;;;;11.43;4.15;;;15.60;99.90;;;;;;4040262;29;20178;-86
2021/07/30 04:51:31;;;;;;;12.05;4.35;;;15.70;99.90;;;;;;4040079;29;20209;-85
2021/07/30 04:53:32;;;;;;;11.27;4.13;;;15.70;99.90;;;;;;4039792;29;20692;-85
2021/07/30 04:55:34;;;;;;;11.40;3.78;;;15.70;99.90;;;;;;4039858;29;20193;-85
2021/07/30 04:57:35;;;;;;;13.02;4.35;;;15.60;99.90;;;;;;4039931;29;20316;-85
2021/07/30 04:59:36;;;;;;;12.82;4.32;;;15.70;99.90;;;;;;4055504;29;20181;-85
2021/07/30 05:01:41;;;;;;;9.75;3.88;;;15.70;99.90;;;;;;4039968;29;20213;-85
2021/07/30 05:03:42;;;;;;;10.73;3.92;;;15.70;99.90;;;;;;4055454;29;20180;-94
2021/07/30 05:05:42;;;;;;;10.85;3.65;;;15.80;99.90;;;;;;4039964;29;20212;-86
2021/07/30 05:07:44;;;;;;;11.25;3.60;;;16.00;99.90;;;;;;4055335;29;20177;-86
2021/07/30 05:09:45;;;;;;;20.45;4.07;;;16.20;99.90;;;;;;4024438;29;20572;-86
2021/07/30 05:11:45;;;;;;;21.42;4.07;;;16.30;99.90;;;;;;4070952;29;20228;-86
2021/07/30 05:13:46;;;;;;;11.32;4.05;;;16.40;99.90;;;;;;4024432;29;20315;-87
2021/07/30 05:15:47;;;;;;;15.57;3.63;;;16.30;99.90;;;;;;4055314;29;20228;-86
2021/07/30 05:17:47;;;;;;;13.57;3.72;;;16.30;99.90;;;;;;4024549;29;20725;-87
2021/07/30 05:19:48;;;;;;;10.43;3.50;;;16.30;99.90;;;;;;4024447;29;20185;-85
2021/07/30 05:21:49;;;;;;;17.25;3.95;;;16.50;99.90;;;;;;4055330;29;20188;-94
2021/07/30 05:23:50;;;;;;;11.18;3.65;;;16.50;99.90;;;;;;4024151;29;20690;-86
2021/07/30 05:25:54;;;;;;;7.47;3.35;;;16.60;99.90;;;;;;4055004;29;20253;-85
2021/07/30 05:27:55;;;;;;;10.40;3.65;;;16.80;99.90;;;;;;4039684;29;20177;-86
2021/07/30 05:29:58;;;;;;;9.18;3.40;;;16.80;99.90;;;;;;4055148;29;20283;-87
2021/07/30 05:31:59;;;;;;;9.07;3.53;;;17.00;99.90;;;;;;4070676;29;20195;-86
2021/07/30 05:34:00;;;;;;;10.23;3.67;;;17.10;99.90;;;;;;4024329;29;20556;-87
2021/07/30 05:36:01;;;;;;;10.70;3.55;;;17.30;99.90;;;;;;4039328;29;20202;-86
2021/07/30 05:38:02;;;;;;;13.32;3.40;;;17.40;99.90;;;;;;4039622;29;20240;-96
2021/07/30 05:40:03;;;;;;;11.30;3.13;;;17.50;99.90;;;;;;4054855;29;20662;-86
2021/07/30 05:42:04;;;;;;;10.65;3.17;;;17.30;99.90;;;;;;4039179;29;20184;-95
2021/07/30 05:44:05;;;;;;;12.05;3.30;;;17.40;99.90;;;;;;4039594;29;20265;-94
2021/07/30 05:46:07;;;;;;;10.57;3.08;;;17.40;99.90;;;;;;4023857;29;20210;-94
2021/07/30 05:48:08;;;;;;;12.45;3.33;;;17.50;99.90;;;;;;4024334;29;20225;-86
2021/07/30 05:50:09;;;;;;;11.27;3.17;;;17.50;99.90;;;;;;4039530;29;20178;-86
2021/07/30 05:52:09;;;;;;;10.10;3.10;;;17.50;99.90;;;;;;4054575;29;20543;-86
2021/07/30 05:54:10;;;;;;;7.63;3.08;;;17.40;99.90;;;;;;4039563;29;20192;-86
2021/07/30 05:56:11;;;;;;;11.00;3.50;;;17.40;99.90;;;;;;4024005;29;20277;-94
2021/07/30 05:58:12;;;;;;;13.73;3.10;;;17.30;99.90;;;;;;4054689;29;20280;-87
2021/07/30 06:00:13;;;;;;;10.73;3.17;;;17.40;99.90;;;;;;4024057;29;20659;-87
2021/07/30 06:02:14;;;;;;;8.70;3.60;;;17.50;99.90;;;;;;4055051;29;20598;-86
2021/07/30 06:04:17;;;;;;;8.93;2.95;;;17.60;99.90;;;;;;4054708;29;20184;-87
2021/07/30 06:06:18;;;;;;;7.05;3.00;;;17.60;99.90;;;;;;4023848;29;20179;-87
2021/07/30 06:08:18;;;;;;;11.50;2.95;;;17.90;99.90;;;;;;4039132;29;20197;-86
2021/07/30 06:10:19;;;;;;;12.65;2.92;;;17.90;99.90;;;;;;4039464;29;20230;-93
2021/07/30 06:12:20;;;;;;;9.10;2.80;;;18.00;99.90;;;;;;4023840;29;20187;-86
2021/07/30 06:14:21;;;;;;;8.65;2.83;;;18.10;99.90;;;;;;4070204;29;20216;-94
2021/07/30 06:16:21;;;;;;;6.90;2.38;;;18.10;99.90;;;;;;4038858;29;20209;-96
2021/07/30 06:18:22;;;;;;;8.18;3.10;;;18.00;99.90;;;;;;4054642;29;20217;-86
2021/07/30 06:20:24;;;;;;;7.93;2.65;;;17.90;99.90;;;;;;4023751;29;20213;-87
2021/07/30 06:22:25;;;;;;;8.13;2.63;;;18.00;99.90;;;;;;4054934;29;20325;-86
2021/07/30 06:24:26;;;;;;;8.52;2.72;;;18.10;99.90;;;;;;4023525;29;20178;-95
2021/07/30 06:26:26;;;;;;;10.93;2.95;;;18.20;99.90;;;;;;4054831;29;20591;-92
2021/07/30 06:28:27;;;;;;;6.90;2.67;;;18.20;99.90;;;;;;4023648;29;20182;-87
2021/07/30 06:30:28;;;;;;;7.50;2.72;;;18.00;99.90;;;;;;4023371;29;20687;-86
2021/07/30 06:32:29;;;;;;;7.00;2.85;;;18.00;99.90;;;;;;4038970;29;20261;-86
2021/07/30 06:34:30;;;;;;;10.90;2.88;;;18.00;99.90;;;;;;4038857;29;20193;-86
2021/07/30 06:36:30;;;;;;;7.07;2.63;;;18.00;99.90;;;;;;4023338;29;20218;-88
2021/07/30 06:38:31;;;;;;;6.60;2.30;;;17.90;99.90;;;;;;4038674;29;20193;-94
2021/07/30 06:40:32;;;;;;;9.35;2.47;;;17.90;99.90;;;;;;4054208;29;20185;-86
2021/07/30 06:42:33;;;;;;;6.60;2.15;;;17.90;99.90;;;;;;4023250;29;20280;-90
2021/07/30 06:44:34;;;;;;;6.10;2.10;;;18.00;99.90;;;;;;4038472;29;20233;-86
2021/07/30 06:46:35;;;;;;;9.82;2.72;;;18.20;99.90;;;;;;4022903;29;20600;-91
2021/07/30 06:48:36;;;;;;;7.05;2.60;;;18.40;99.90;;;;;;4023252;29;20186;-86
2021/07/30 06:50:37;;;;;;;7.40;2.40;;;18.40;99.90;;;;;;4037985;29;20182;-87
2021/07/30 06:52:37;;;;;;;10.70;2.40;;;18.60;99.90;;;;;;4038517;29;20177;-88
2021/07/30 06:54:38;;;;;;;6.75;2.33;;;18.70;99.90;;;;;;4022679;29;20262;-86
2021/07/30 06:56:39;;;;;;;4.88;2.42;;;18.90;99.90;;;;;;4069418;29;20192;-88
2021/07/30 06:58:40;;;;;;;8.95;2.75;;;18.90;99.90;;;;;;4038703;29;20177;-94
2021/07/30 07:00:41;;;;;;;6.82;2.83;;;19.00;99.90;;;;;;4022901;29;20182;-86
2021/07/30 07:02:42;;;;;;;13.80;2.50;;;18.90;99.90;;;;;;4038578;29;20262;-92
2021/07/30 07:04:43;;;;;;;9.55;2.78;;;18.90;99.90;;;;;;4053438;29;20336;-87
2021/07/30 07:06:47;;;;;;;10.57;2.47;;;19.00;99.90;;;;;;4053635;29;20618;-88
2021/07/30 07:08:48;;;;;;;7.70;2.58;;;18.90;99.90;;;;;;4053948;29;20201;-88
2021/07/30 07:10:48;;;;;;;7.07;2.80;;;19.00;99.90;;;;;;4023109;29;20186;-93
2021/07/30 07:12:49;;;;;;;8.68;2.63;;;19.00;99.90;;;;;;4023192;29;20231;-86
2021/07/30 07:14:50;;;;;;;6.95;2.47;;;19.10;99.90;;;;;;4053606;29;20301;-92
2021/07/30 07:16:51;;;;;;;10.10;2.80;;;19.30;99.90;;;;;;4038242;29;20277;-93
2021/07/30 07:18:51;;;;;;;6.15;2.33;;;19.50;99.90;;;;;;4053547;29;20760;-87
2021/07/30 07:20:57;;;;;;;14.77;2.90;;;20.10;99.90;;;;;;4037955;29;20178;-93
2021/07/30 07:22:57;;;;;;;7.82;2.83;;;21.30;99.90;;;;;;4038339;29;20709;-94
2021/07/30 07:24:58;;;;;;;14.80;2.80;;;22.10;99.90;;;;;;4038072;29;20198;-93
2021/07/30 07:26:59;;;;;;;10.48;2.80;;;23.10;99.90;;;;;;4022946;29;20182;-93
2021/07/30 07:29:00;;;;;;;10.05;2.95;;;23.30;99.90;;;;;;4037782;29;20200;-95
2021/07/30 07:31:00;;;;;;;7.25;2.70;;;24.00;99.90;;;;;;4037851;29;20221;-87
2021/07/30 07:33:01;;;;;;;8.93;2.95;;;25.00;99.90;;;;;;4053283;29;20172;-87
2021/07/30 07:35:02;;;;;;;11.10;3.60;;;25.80;99.90;;;;;;4022398;29;20202;-88
2021/07/30 07:37:03;;;;;;;7.78;3.03;;;25.70;99.90;;;;;;4037838;29;20205;-86
2021/07/30 07:39:04;;;;;;;9.10;3.15;;;26.10;99.90;;;;;;4022622;29;20182;-87
2021/07/30 07:41:05;;;;;;;13.10;3.33;;;26.50;99.90;;;;;;4022103;29;20671;-87
2021/07/30 07:43:06;;;;;;;9.63;3.10;;;26.00;99.90;;;;;;4052731;29;20263;-87
2021/07/30 07:45:07;;;;;;;11.50;3.22;;;27.00;99.90;;;;;;4052859;29;20291;-94
2021/07/30 07:47:08;;;;;;;6.05;3.20;;;27.30;99.90;;;;;;4053192;29;20276;-86
2021/07/30 07:49:10;;;;;;;12.25;2.92;;;27.40;99.90;;;;;;4022501;29;20227;-87
2021/07/30 07:51:11;;;;;;;6.80;3.10;;;26.90;99.90;;;;;;4053367;29;20224;-87
2021/07/30 07:53:16;;;;;;;11.52;3.13;;;25.70;99.90;;;;;;4022370;29;20533;-87
2021/07/30 07:55:17;;;;;;;9.70;2.97;;;25.50;99.90;;;;;;4022266;29;20288;-88
2021/07/30 07:57:18;;;;;;;5.82;2.53;;;25.60;99.90;;;;;;4037572;29;20256;-87
2021/07/30 07:59:18;;;;;;;7.70;3.10;;;25.20;99.90;;;;;;4068392;29;20172;-88
2021/07/30 08:01:19;;;;;;;11.63;2.90;;;24.90;99.90;;;;;;4037632;29;20178;-94
2021/07/30 08:03:20;;;;;;;9.70;2.92;;;25.10;99.90;;;;;;4022134;29;20171;-87
2021/07/30 08:05:21;;;;;;;6.97;3.10;;;25.80;99.90;;;;;;4021533;29;20283;-87
2021/07/30 08:07:21;;;;;;;5.85;2.30;;;26.40;99.90;;;;;;4021503;29;20213;-88
2021/07/30 08:09:22;;;;;;;8.93;2.28;;;26.10;99.90;;;;;;4052914;29;20233;-88
2021/07/30 08:11:23;;;;;;;8.13;2.30;;;25.40;99.90;;;;;;4022442;29;20194;-94
2021/07/30 08:13:23;;;;;;;6.20;2.22;;;25.60;99.90;;;;;;4037552;29;20177;-92
2021/07/30 08:15:24;;;;;;;5.93;1.80;;;25.70;99.90;;;;;;4053034;29;20200;-93
2021/07/30 08:17:25;;;;;;;10.82;2.00;;;25.50;99.90;;;;;;4021659;29;20214;-90
2021/07/30 08:19:26;;;;;;;6.80;1.80;;;25.80;99.90;;;;;;4037450;29;20190;-87
2021/07/30 08:21:27;;;;;;;6.40;2.00;;;26.60;99.90;;;;;;4052807;29;20256;-94
2021/07/30 08:23:28;;;;;;;5.10;1.70;;;26.80;99.90;;;;;;4022391;29;20185;-87
2021/07/30 08:25:29;;;;;;;10.13;1.60;;;26.70;99.90;;;;;;4053009;29;20548;-87
2021/07/30 08:27:30;;;;;;;7.30;1.63;;;26.90;99.90;;;;;;4021992;29;20319;-88
2021/07/30 08:29:30;;;;;;;6.75;2.00;;;27.60;99.90;;;;;;4037359;29;20612;-87
2021/07/30 08:31:31;;;;;;;6.85;2.05;;;28.40;99.90;;;;;;4022108;29;20540;-87
2021/07/30 08:33:34;;;;;;;4.10;1.58;;;28.10;99.90;;;;;;4052490;29;20283;-92
2021/07/30 08:35:35;;;;;;;7.28;1.45;;;29.00;99.90;;;;;;4052354;29;20232;-93
2021/07/30 08:37:36;;;;;;;4.95;1.77;;;29.00;99.90;;;;;;4052629;29;20697;-88
2021/07/30 08:39:37;;;;;;;5.78;1.65;;;29.20;99.90;;;;;;4021764;29;20185;-87
2021/07/30 08:41:39;;;;;;;7.00;1.50;;;29.40;99.90;;;;;;4038383;29;20256;-95
2021/07/30 08:43:39;;;;;;;5.55;1.80;;;29.50;99.90;;;;;;4023226;29;20522;-94
2021/07/30 08:45:40;;;;;;;5.15;1.60;;;27.90;99.90;;;;;;4036884;29;20253;-87
2021/07/30 08:47:43;;;;;;;4.60;1.70;;;27.30;99.90;;;;;;4037234;29;20237;-93
2021/07/30 08:49:44;;;;;;;5.47;1.60;;;27.20;99.90;;;;;;4037343;29;20178;-87
2021/07/30 08:51:49;;;;;;;5.80;1.63;;;27.20;99.90;;;;;;4038180;29;20677;-92
2021/07/30 08:53:50;;;;;;;6.30;1.60;;;27.80;99.90;;;;;;4038226;29;20186;-87
2021/07/30 08:55:51;;;;;;;6.25;1.85;;;28.00;99.90;;;;;;4037015;29;20225;-88
2021/07/30 08:57:52;;;;;;;5.05;1.70;;;27.70;99.90;;;;;;4036957;29;20220;-86
2021/07/30 08:59:53;;;;;;;8.27;1.92;;;27.70;99.90;;;;;;4037391;29;20190;-87
2021/07/30 09:01:54;;;;;;;5.53;1.70;;;27.60;99.90;;;;;;4052488;29;20558;-88
2021/07/30 09:03:54;;;;;;;6.00;1.95;;;27.50;99.90;;;;;;4021341;29;20188;-89
2021/07/30 09:05:55;;;;;;;6.90;2.58;;;26.70;99.90;;;;;;4038020;29;20296;-93
2021/07/30 09:08:01;;;;;;;7.22;1.85;;;25.90;99.90;;;;;;4036984;29;20570;-86
2021/07/30 09:10:02;;;;;;;3.67;1.95;;;25.60;99.90;;;;;;4037279;29;20189;-88
2021/07/30 09:12:05;;;;;;;5.05;1.70;;;25.30;99.90;;;;;;4052394;29;20181;-87
2021/07/30 09:14:10;;;;;;;4.07;1.73;;;25.10;99.90;;;;;;4038044;29;20197;-87
2021/07/30 09:16:12;;;;;;;4.90;1.88;;;24.70;99.90;;;;;;4028904;23;20659;-88
2021/07/30 09:18:24;;;;;;;4.82;2.30;;;24.60;99.90;;;;;;4007498;29;20210;-87
2021/07/30 09:20:25;;;;;;;8.35;2.10;;;24.60;99.90;;;;;;4008931;29;20175;-85
2021/07/30 09:22:25;;;;;;;4.80;1.92;;;24.60;99.90;;;;;;4008760;29;20185;-87
2021/07/30 09:24:39;;;;;;;6.78;2.05;;;24.60;99.90;;;;;;3993531;29;20176;-86
2021/07/30 09:26:44;;;;;;;6.53;2.10;;;24.40;99.90;;;;;;4023982;29;20234;-87
2021/07/30 09:28:54;;;;;;;6.05;2.10;;;24.20;99.90;;;;;;4024415;29;20170;-87
2021/07/30 09:30:58;;;;;;;6.97;2.20;;;24.40;99.90;;;;;;4008704;29;20225;-88
2021/07/30 09:32:59;;;;;;;7.47;2.30;;;24.60;99.90;;;;;;4008639;29;20201;-87
2021/07/30 09:35:00;;;;;;;6.05;2.30;;;24.60;99.90;;;;;;4023831;29;20289;-85
2021/07/30 09:37:06;;;;;;;6.63;2.10;;;24.70;99.90;;;;;;4008486;29;20313;-86
2021/07/30 09:39:07;;;;;;;5.68;1.90;;;24.30;99.90;;;;;;4008586;29;20210;-87
2021/07/30 09:41:13;;;;;;;4.55;1.70;;;24.30;99.90;;;;;;4008557;29;20187;-87
2021/07/30 09:43:24;;;;;;;8.45;1.90;;;23.80;99.90;;;;;;4008421;29;20285;-86
2021/07/30 09:45:32;;;;;;;4.38;1.85;;;23.70;99.90;;;;;;4023913;29;20353;-87
2021/07/30 09:47:34;;;;;;;4.63;1.55;;;23.70;99.90;;;;;;4008561;29;20182;-86
2021/07/30 09:49:55;;;;;;;4.45;1.80;;;24.10;99.90;;;;;;4008619;29;20262;-86
2021/07/30 09:51:56;;;;;;;8.48;2.28;;;24.30;99.90;;;;;;3992870;29;20191;-87
2021/07/30 09:53:58;;;;;;;7.57;1.83;;;24.90;99.90;;;;;;4008207;29;20711;-86
2021/07/30 09:55:59;;;;;;;4.55;1.67;;;25.00;99.90;;;;;;4008228;29;20206;-86
2021/07/30 09:58:03;;;;;;;4.00;1.60;;;24.90;99.90;;;;;;4008213;29;20214;-86
2021/07/30 10:00:10;;;;;;;8.82;1.73;;;25.00;99.90;;;;;;4008239;29;20175;-87
2021/07/30 10:02:15;;;;;;;4.65;1.63;;;24.90;99.90;;;;;;4008597;29;20186;-95
2021/07/30 10:04:21;;;;;;;5.53;1.80;;;24.90;99.90;;;;;;4023617;29;20265;-86
2021/07/30 10:06:23;;;;;;;3.78;1.85;;;24.60;99.90;;;;;;4023358;29;20186;-88
2021/07/30 10:08:24;;;;;;;5.85;1.80;;;24.50;99.90;;;;;;4008168;29;20182;-87
2021/07/30 10:10:28;;;;;;;5.93;1.77;;;24.50;99.90;;;;;;4008302;29;20629;-86
2021/07/30 10:12:30;;;;;;;11.93;1.98;;;24.80;99.90;;;;;;4008191;29;20266;-86
2021/07/30 10:14:32;;;;;;;5.15;1.85;;;25.10;99.90;;;;;;4023435;29;20179;-86
2021/07/30 10:16:45;;;;;;;6.03;2.03;;;24.80;99.90;;;;;;4023088;29;20190;-85
2021/07/30 10:18:47;;;;;;;5.03;1.75;;;24.30;99.90;;;;;;4023267;29;20197;-85
2021/07/30 10:20:49;;;;;;;8.23;1.95;;;24.00;99.90;;;;;;4007896;29;20175;-87
2021/07/30 10:23:08;;;;;;;4.30;1.90;;;24.10;99.90;;;;;;4008182;29;20518;-85
2021/07/30 10:25:14;;;;;;;3.88;1.60;;;23.80;99.90;;;;;;4008134;29;20221;-87
2021/07/30 10:27:17;;;;;;;12.65;2.20;;;23.60;99.90;;;;;;4008828;29;20210;-85